sensor_id;sensor_type;location;lat;lon;timestamp;temperature;humidity
23289;DHT22;11813;50.834;4.280;2023-11-18T00:01:08;8.00;99.90
23289;DHT22;11813;50.834;4.280;2023-11-18T00:03:34;8.00;99.90
23289;DHT22;11813;50.834;4.280;2023-11-18T00:06:00;8.10;99.90
23289;DHT22;11813;50.834;4.280;2023-11-18T00:08:25;8.10;99.90
23289;DHT22;11813;50.834;4.280;2023-11-18T00:10:51;8.20;99.90
23289;DHT22;11813;50.834;4.280;2023-11-18T00:13:16;8.10;99.90
23289;DHT22;11813;50.834;4.280;2023-11-18T00:15:42;8.20;99.90
23289;DHT22;11813;50.834;4.280;2023-11-18T00:18:11;8.20;99.90
23289;DHT22;11813;50.834;4.280;2023-11-18T00:20:37;8.20;99.90
23289;DHT22;11813;50.834;4.280;2023-11-18T00:23:02;8.20;99.90
23289;DHT22;11813;50.834;4.280;2023-11-18T00:25:30;8.20;99.90
23289;DHT22;11813;50.834;4.280;2023-11-18T00:27:55;8.20;99.90
23289;DHT22;11813;50.834;4.280;2023-11-18T00:30:21;8.20;99.90
23289;DHT22;11813;50.834;4.280;2023-11-18T00:32:47;8.20;99.90
23289;DHT22;11813;50.834;4.280;2023-11-18T00:35:13;8.20;99.90
23289;DHT22;11813;50.834;4.280;2023-11-18T00:37:40;8.20;99.90
23289;DHT22;11813;50.834;4.280;2023-11-18T00:40:07;8.30;99.90
23289;DHT22;11813;50.834;4.280;2023-11-18T00:42:33;8.30;99.90
23289;DHT22;11813;50.834;4.280;2023-11-18T00:44:58;8.30;99.90
23289;DHT22;11813;50.834;4.280;2023-11-18T00:47:24;8.30;99.90
23289;DHT22;11813;50.834;4.280;2023-11-18T00:49:49;8.30;99.90
23289;DHT22;11813;50.834;4.280;2023-11-18T00:52:17;8.30;99.90
23289;DHT22;11813;50.834;4.280;2023-11-18T00:54:43;8.20;99.90
23289;DHT22;11813;50.834;4.280;2023-11-18T00:57:09;8.30;99.90
23289;DHT22;11813;50.834;4.280;2023-11-18T00:59:34;8.30;99.90
23289;DHT22;11813;50.834;4.280;2023-11-18T01:02:00;8.20;99.90
23289;DHT22;11813;50.834;4.280;2023-11-18T01:04:28;8.20;99.90
23289;DHT22;11813;50.834;4.280;2023-11-18T01:06:54;8.10;99.90
23289;DHT22;11813;50.834;4.280;2023-11-18T01:09:19;8.20;99.90
23289;DHT22;11813;50.834;4.280;2023-11-18T01:11:45;8.20;99.90
23289;DHT22;11813;50.834;4.280;2023-11-18T01:14:11;8.20;99.90
23289;DHT22;11813;50.834;4.280;2023-11-18T01:16:37;8.30;99.90
23289;DHT22;11813;50.834;4.280;2023-11-18T01:19:03;8.30;99.90
23289;DHT22;11813;50.834;4.280;2023-11-18T01:21:29;8.30;99.90
23289;DHT22;11813;50.834;4.280;2023-11-18T01:23:54;8.30;99.90
23289;DHT22;11813;50.834;4.280;2023-11-18T01:26:20;8.30;99.90
23289;DHT22;11813;50.834;4.280;2023-11-18T01:28:47;8.30;99.90
23289;DHT22;11813;50.834;4.280;2023-11-18T01:31:12;8.30;99.90
23289;DHT22;11813;50.834;4.280;2023-11-18T01:33:39;8.40;99.90
23289;DHT22;11813;50.834;4.280;2023-11-18T01:36:07;8.30;99.90
23289;DHT22;11813;50.834;4.280;2023-11-18T01:38:34;8.30;99.90
23289;DHT22;11813;50.834;4.280;2023-11-18T01:41:00;8.30;99.90
23289;DHT22;11813;50.834;4.280;2023-11-18T01:43:26;8.30;99.90
23289;DHT22;11813;50.834;4.280;2023-11-18T01:45:51;8.40;99.90
23289;DHT22;11813;50.834;4.280;2023-11-18T01:48:19;8.40;99.90
23289;DHT22;11813;50.834;4.280;2023-11-18T01:50:45;8.40;99.90
23289;DHT22;11813;50.834;4.280;2023-11-18T01:53:13;8.40;99.90
23289;DHT22;11813;50.834;4.280;2023-11-18T01:55:42;8.40;99.90
23289;DHT22;11813;50.834;4.280;2023-11-18T01:58:08;8.40;99.90
23289;DHT22;11813;50.834;4.280;2023-11-18T02:00:37;8.40;99.90
23289;DHT22;11813;50.834;4.280;2023-11-18T02:03:05;8.40;99.90
23289;DHT22;11813;50.834;4.280;2023-11-18T02:05:31;8.40;99.90
23289;DHT22;11813;50.834;4.280;2023-11-18T02:08:01;8.40;99.90
23289;DHT22;11813;50.834;4.280;2023-11-18T02:10:30;8.40;99.90
23289;DHT22;11813;50.834;4.280;2023-11-18T02:13:24;8.40;99.90
23289;DHT22;11813;50.834;4.280;2023-11-18T02:15:56;8.40;99.90
23289;DHT22;11813;50.834;4.280;2023-11-18T02:18:26;8.40;99.90
23289;DHT22;11813;50.834;4.280;2023-11-18T02:20:55;8.40;99.90
23289;DHT22;11813;50.834;4.280;2023-11-18T02:23:24;8.40;99.90
23289;DHT22;11813;50.834;4.280;2023-11-18T02:25:52;8.40;99.90
23289;DHT22;11813;50.834;4.280;2023-11-18T02:28:18;8.40;99.90
23289;DHT22;11813;50.834;4.280;2023-11-18T02:30:45;8.40;99.90
23289;DHT22;11813;50.834;4.280;2023-11-18T02:33:53;8.40;99.90
23289;DHT22;11813;50.834;4.280;2023-11-18T02:36:36;8.40;99.90
23289;DHT22;11813;50.834;4.280;2023-11-18T02:39:08;8.40;99.90
23289;DHT22;11813;50.834;4.280;2023-11-18T02:41:38;8.30;99.90
23289;DHT22;11813;50.834;4.280;2023-11-18T02:44:05;8.30;99.90
23289;DHT22;11813;50.834;4.280;2023-11-18T02:46:38;8.40;99.90
23289;DHT22;11813;50.834;4.280;2023-11-18T02:49:04;8.40;99.90
23289;DHT22;11813;50.834;4.280;2023-11-18T02:51:29;8.50;99.90
23289;DHT22;11813;50.834;4.280;2023-11-18T02:53:57;8.50;99.90
23289;DHT22;11813;50.834;4.280;2023-11-18T02:56:22;8.50;99.90
23289;DHT22;11813;50.834;4.280;2023-11-18T02:58:48;8.60;99.90
23289;DHT22;11813;50.834;4.280;2023-11-18T03:01:14;8.50;99.90
23289;DHT22;11813;50.834;4.280;2023-11-18T03:03:39;8.60;99.90
23289;DHT22;11813;50.834;4.280;2023-11-18T03:06:05;8.60;99.90
23289;DHT22;11813;50.834;4.280;2023-11-18T03:08:31;8.60;99.90
23289;DHT22;11813;50.834;4.280;2023-11-18T03:10:57;8.60;99.90
23289;DHT22;11813;50.834;4.280;2023-11-18T03:13:23;8.60;99.90
23289;DHT22;11813;50.834;4.280;2023-11-18T03:15:50;8.60;99.90
23289;DHT22;11813;50.834;4.280;2023-11-18T03:18:16;8.70;99.90
23289;DHT22;11813;50.834;4.280;2023-11-18T03:20:41;8.60;99.90
23289;DHT22;11813;50.834;4.280;2023-11-18T03:23:07;8.70;99.90
23289;DHT22;11813;50.834;4.280;2023-11-18T03:25:34;8.70;99.90
23289;DHT22;11813;50.834;4.280;2023-11-18T03:28:00;8.60;99.90
23289;DHT22;11813;50.834;4.280;2023-11-18T03:30:26;8.60;99.90
23289;DHT22;11813;50.834;4.280;2023-11-18T03:32:54;8.60;99.90
23289;DHT22;11813;50.834;4.280;2023-11-18T03:35:20;8.60;99.90
23289;DHT22;11813;50.834;4.280;2023-11-18T03:37:45;8.60;99.90
23289;DHT22;11813;50.834;4.280;2023-11-18T03:40:13;8.60;99.90
23289;DHT22;11813;50.834;4.280;2023-11-18T03:42:42;8.60;99.90
23289;DHT22;11813;50.834;4.280;2023-11-18T03:45:08;8.70;99.90
23289;DHT22;11813;50.834;4.280;2023-11-18T03:47:37;8.60;99.90
23289;DHT22;11813;50.834;4.280;2023-11-18T03:50:03;8.70;99.90
23289;DHT22;11813;50.834;4.280;2023-11-18T03:52:29;8.70;99.90
23289;DHT22;11813;50.834;4.280;2023-11-18T03:54:54;8.70;99.90
23289;DHT22;11813;50.834;4.280;2023-11-18T03:57:20;8.60;99.90
23289;DHT22;11813;50.834;4.280;2023-11-18T03:59:46;8.60;99.90
23289;DHT22;11813;50.834;4.280;2023-11-18T04:02:12;8.70;99.90
23289;DHT22;11813;50.834;4.280;2023-11-18T04:04:38;8.80;99.90
23289;DHT22;11813;50.834;4.280;2023-11-18T04:07:04;8.80;99.90
23289;DHT22;11813;50.834;4.280;2023-11-18T04:09:30;8.80;99.90
23289;DHT22;11813;50.834;4.280;2023-11-18T04:11:55;8.80;99.90
23289;DHT22;11813;50.834;4.280;2023-11-18T04:14:21;8.80;99.90
23289;DHT22;11813;50.834;4.280;2023-11-18T04:16:50;8.80;99.90
23289;DHT22;11813;50.834;4.280;2023-11-18T04:19:16;8.80;99.90
23289;DHT22;11813;50.834;4.280;2023-11-18T04:21:41;8.80;99.90
23289;DHT22;11813;50.834;4.280;2023-11-18T04:24:07;8.80;99.90
23289;DHT22;11813;50.834;4.280;2023-11-18T04:26:33;8.80;99.90
23289;DHT22;11813;50.834;4.280;2023-11-18T04:28:58;8.80;99.90
23289;DHT22;11813;50.834;4.280;2023-11-18T04:31:24;8.90;99.90
23289;DHT22;11813;50.834;4.280;2023-11-18T04:33:50;8.90;99.90
23289;DHT22;11813;50.834;4.280;2023-11-18T04:36:16;9.00;99.90
23289;DHT22;11813;50.834;4.280;2023-11-18T04:38:42;8.90;99.90
23289;DHT22;11813;50.834;4.280;2023-11-18T04:41:11;8.90;99.90
23289;DHT22;11813;50.834;4.280;2023-11-18T04:43:37;8.90;99.90
23289;DHT22;11813;50.834;4.280;2023-11-18T04:46:05;9.00;99.90
23289;DHT22;11813;50.834;4.280;2023-11-18T04:48:31;9.00;99.90
23289;DHT22;11813;50.834;4.280;2023-11-18T04:50:56;8.90;99.90
23289;DHT22;11813;50.834;4.280;2023-11-18T04:53:22;8.80;99.90
23289;DHT22;11813;50.834;4.280;2023-11-18T04:55:47;8.80;99.90
23289;DHT22;11813;50.834;4.280;2023-11-18T04:58:13;8.90;99.90
23289;DHT22;11813;50.834;4.280;2023-11-18T05:00:39;8.90;99.90
23289;DHT22;11813;50.834;4.280;2023-11-18T05:03:05;8.90;99.90
23289;DHT22;11813;50.834;4.280;2023-11-18T05:05:35;8.90;99.90
23289;DHT22;11813;50.834;4.280;2023-11-18T05:08:04;8.90;99.90
23289;DHT22;11813;50.834;4.280;2023-11-18T05:10:31;8.90;99.90
23289;DHT22;11813;50.834;4.280;2023-11-18T05:12:57;9.00;99.90
23289;DHT22;11813;50.834;4.280;2023-11-18T05:15:22;9.00;99.90
23289;DHT22;11813;50.834;4.280;2023-11-18T05:17:53;9.00;99.90
23289;DHT22;11813;50.834;4.280;2023-11-18T05:20:20;9.10;99.90
23289;DHT22;11813;50.834;4.280;2023-11-18T05:22:46;9.10;99.90
23289;DHT22;11813;50.834;4.280;2023-11-18T05:25:11;9.00;99.90
23289;DHT22;11813;50.834;4.280;2023-11-18T05:27:37;9.10;99.90
23289;DHT22;11813;50.834;4.280;2023-11-18T05:30:06;9.20;99.90
23289;DHT22;11813;50.834;4.280;2023-11-18T05:32:32;9.10;99.90
23289;DHT22;11813;50.834;4.280;2023-11-18T05:34:58;9.10;99.90
23289;DHT22;11813;50.834;4.280;2023-11-18T05:37:24;9.20;99.90
23289;DHT22;11813;50.834;4.280;2023-11-18T05:39:50;9.10;99.90
23289;DHT22;11813;50.834;4.280;2023-11-18T05:42:25;9.10;99.90
23289;DHT22;11813;50.834;4.280;2023-11-18T05:44:50;9.00;99.90
23289;DHT22;11813;50.834;4.280;2023-11-18T05:47:23;9.10;99.90
23289;DHT22;11813;50.834;4.280;2023-11-18T05:49:49;9.10;99.90
23289;DHT22;11813;50.834;4.280;2023-11-18T05:52:14;9.10;99.90
23289;DHT22;11813;50.834;4.280;2023-11-18T05:54:40;9.00;99.90
23289;DHT22;11813;50.834;4.280;2023-11-18T05:57:05;9.10;99.90
23289;DHT22;11813;50.834;4.280;2023-11-18T05:59:31;9.10;99.90
23289;DHT22;11813;50.834;4.280;2023-11-18T06:01:56;9.10;99.90
23289;DHT22;11813;50.834;4.280;2023-11-18T06:04:22;9.30;99.90
23289;DHT22;11813;50.834;4.280;2023-11-18T06:06:48;9.40;99.90
23289;DHT22;11813;50.834;4.280;2023-11-18T06:09:13;9.40;99.90
23289;DHT22;11813;50.834;4.280;2023-11-18T06:11:46;9.20;99.90
23289;DHT22;11813;50.834;4.280;2023-11-18T06:14:12;9.10;99.90
23289;DHT22;11813;50.834;4.280;2023-11-18T06:16:38;9.20;99.90
23289;DHT22;11813;50.834;4.280;2023-11-18T06:19:06;9.20;99.90
23289;DHT22;11813;50.834;4.280;2023-11-18T06:21:32;9.20;99.90
23289;DHT22;11813;50.834;4.280;2023-11-18T06:23:59;9.20;99.90
23289;DHT22;11813;50.834;4.280;2023-11-18T06:26:25;9.30;99.90
23289;DHT22;11813;50.834;4.280;2023-11-18T06:28:54;9.40;99.90
23289;DHT22;11813;50.834;4.280;2023-11-18T06:31:20;9.40;99.90
23289;DHT22;11813;50.834;4.280;2023-11-18T06:33:47;9.40;99.90
23289;DHT22;11813;50.834;4.280;2023-11-18T06:38:52;9.40;99.90
23289;DHT22;11813;50.834;4.280;2023-11-18T06:41:21;9.40;99.90
23289;DHT22;11813;50.834;4.280;2023-11-18T06:43:49;9.40;99.90
23289;DHT22;11813;50.834;4.280;2023-11-18T06:46:24;9.40;99.90
23289;DHT22;11813;50.834;4.280;2023-11-18T06:48:50;9.40;99.90
23289;DHT22;11813;50.834;4.280;2023-11-18T06:51:28;9.40;99.90
23289;DHT22;11813;50.834;4.280;2023-11-18T06:53:55;9.30;99.90
23289;DHT22;11813;50.834;4.280;2023-11-18T06:56:21;9.30;99.90
23289;DHT22;11813;50.834;4.280;2023-11-18T06:58:47;9.40;99.90
23289;DHT22;11813;50.834;4.280;2023-11-18T07:01:13;9.40;99.90
23289;DHT22;11813;50.834;4.280;2023-11-18T07:03:43;9.50;99.90
23289;DHT22;11813;50.834;4.280;2023-11-18T07:06:09;9.40;99.90
23289;DHT22;11813;50.834;4.280;2023-11-18T07:08:36;9.40;99.90
23289;DHT22;11813;50.834;4.280;2023-11-18T07:11:02;9.50;99.90
23289;DHT22;11813;50.834;4.280;2023-11-18T07:13:28;9.50;99.90
23289;DHT22;11813;50.834;4.280;2023-11-18T07:15:54;9.50;99.90
23289;DHT22;11813;50.834;4.280;2023-11-18T07:18:22;9.40;99.90
23289;DHT22;11813;50.834;4.280;2023-11-18T07:20:48;9.40;99.90
23289;DHT22;11813;50.834;4.280;2023-11-18T07:23:14;9.50;99.90
23289;DHT22;11813;50.834;4.280;2023-11-18T07:25:43;9.50;99.90
23289;DHT22;11813;50.834;4.280;2023-11-18T07:28:10;9.50;99.90
23289;DHT22;11813;50.834;4.280;2023-11-18T07:30:36;9.60;99.90
23289;DHT22;11813;50.834;4.280;2023-11-18T07:33:03;9.50;99.90
23289;DHT22;11813;50.834;4.280;2023-11-18T07:35:28;9.60;99.90
23289;DHT22;11813;50.834;4.280;2023-11-18T07:37:55;9.60;99.90
23289;DHT22;11813;50.834;4.280;2023-11-18T07:40:21;9.70;99.90
23289;DHT22;11813;50.834;4.280;2023-11-18T07:42:54;9.70;99.90
23289;DHT22;11813;50.834;4.280;2023-11-18T07:45:21;9.60;99.90
23289;DHT22;11813;50.834;4.280;2023-11-18T07:47:49;9.70;99.90
23289;DHT22;11813;50.834;4.280;2023-11-18T07:50:19;9.60;99.90
23289;DHT22;11813;50.834;4.280;2023-11-18T07:52:48;9.60;99.90
23289;DHT22;11813;50.834;4.280;2023-11-18T07:55:14;9.70;99.90
23289;DHT22;11813;50.834;4.280;2023-11-18T07:57:40;9.60;99.90
23289;DHT22;11813;50.834;4.280;2023-11-18T08:00:07;9.60;99.90
23289;DHT22;11813;50.834;4.280;2023-11-18T08:02:37;9.50;99.90
23289;DHT22;11813;50.834;4.280;2023-11-18T08:05:06;9.60;99.90
23289;DHT22;11813;50.834;4.280;2023-11-18T08:07:39;9.60;99.90
23289;DHT22;11813;50.834;4.280;2023-11-18T08:10:05;9.70;99.90
23289;DHT22;11813;50.834;4.280;2023-11-18T08:12:32;9.60;99.90
23289;DHT22;11813;50.834;4.280;2023-11-18T08:14:58;9.50;99.90
23289;DHT22;11813;50.834;4.280;2023-11-18T08:17:25;9.50;99.90
23289;DHT22;11813;50.834;4.280;2023-11-18T08:19:51;9.50;99.90
23289;DHT22;11813;50.834;4.280;2023-11-18T08:22:17;9.60;99.90
23289;DHT22;11813;50.834;4.280;2023-11-18T08:24:44;9.60;99.90
23289;DHT22;11813;50.834;4.280;2023-11-18T08:27:10;9.50;99.90
23289;DHT22;11813;50.834;4.280;2023-11-18T08:29:36;9.50;99.90
23289;DHT22;11813;50.834;4.280;2023-11-18T08:32:04;9.50;99.90
23289;DHT22;11813;50.834;4.280;2023-11-18T08:34:30;9.40;99.90
23289;DHT22;11813;50.834;4.280;2023-11-18T08:36:58;9.40;99.90
23289;DHT22;11813;50.834;4.280;2023-11-18T08:39:25;9.40;99.90
23289;DHT22;11813;50.834;4.280;2023-11-18T08:41:51;9.40;99.90
23289;DHT22;11813;50.834;4.280;2023-11-18T08:44:17;9.40;99.90
23289;DHT22;11813;50.834;4.280;2023-11-18T08:46:43;9.50;99.90
23289;DHT22;11813;50.834;4.280;2023-11-18T08:49:09;9.50;99.90
23289;DHT22;11813;50.834;4.280;2023-11-18T08:51:39;9.50;99.90
23289;DHT22;11813;50.834;4.280;2023-11-18T08:54:07;9.50;99.90
23289;DHT22;11813;50.834;4.280;2023-11-18T08:56:48;9.40;99.90
23289;DHT22;11813;50.834;4.280;2023-11-18T08:59:19;9.40;99.90
23289;DHT22;11813;50.834;4.280;2023-11-18T09:01:54;9.50;99.90
23289;DHT22;11813;50.834;4.280;2023-11-18T09:04:27;9.40;99.90
23289;DHT22;11813;50.834;4.280;2023-11-18T09:06:53;9.50;99.90
23289;DHT22;11813;50.834;4.280;2023-11-18T09:09:22;9.50;99.90
23289;DHT22;11813;50.834;4.280;2023-11-18T09:11:57;9.50;99.90
23289;DHT22;11813;50.834;4.280;2023-11-18T09:14:26;9.50;99.90
23289;DHT22;11813;50.834;4.280;2023-11-18T09:16:52;9.50;99.90
23289;DHT22;11813;50.834;4.280;2023-11-18T09:19:20;9.50;99.90
23289;DHT22;11813;50.834;4.280;2023-11-18T09:21:47;9.50;99.90
23289;DHT22;11813;50.834;4.280;2023-11-18T09:24:12;9.50;99.90
23289;DHT22;11813;50.834;4.280;2023-11-18T09:26:39;9.50;99.90
23289;DHT22;11813;50.834;4.280;2023-11-18T09:29:05;9.50;99.90
23289;DHT22;11813;50.834;4.280;2023-11-18T09:31:34;9.50;99.90
23289;DHT22;11813;50.834;4.280;2023-11-18T09:34:01;9.50;99.90
23289;DHT22;11813;50.834;4.280;2023-11-18T09:36:26;9.50;99.90
23289;DHT22;11813;50.834;4.280;2023-11-18T09:38:54;9.50;99.90
23289;DHT22;11813;50.834;4.280;2023-11-18T09:41:22;9.40;99.90
23289;DHT22;11813;50.834;4.280;2023-11-18T09:43:49;9.40;99.90
23289;DHT22;11813;50.834;4.280;2023-11-18T09:46:25;9.50;99.90
23289;DHT22;11813;50.834;4.280;2023-11-18T09:49:21;9.60;99.90
23289;DHT22;11813;50.834;4.280;2023-11-18T09:51:59;9.60;99.90
23289;DHT22;11813;50.834;4.280;2023-11-18T09:54:50;9.50;99.90
23289;DHT22;11813;50.834;4.280;2023-11-18T09:57:32;9.60;99.90
23289;DHT22;11813;50.834;4.280;2023-11-18T10:00:05;9.50;99.90
23289;DHT22;11813;50.834;4.280;2023-11-18T10:02:50;9.50;99.90
23289;DHT22;11813;50.834;4.280;2023-11-18T10:05:17;9.50;99.90
23289;DHT22;11813;50.834;4.280;2023-11-18T10:07:47;9.60;99.90
23289;DHT22;11813;50.834;4.280;2023-11-18T10:10:13;9.60;99.90
23289;DHT22;11813;50.834;4.280;2023-11-18T10:12:45;9.60;99.90
23289;DHT22;11813;50.834;4.280;2023-11-18T10:15:14;9.60;99.90
23289;DHT22;11813;50.834;4.280;2023-11-18T10:17:45;9.60;99.90
23289;DHT22;11813;50.834;4.280;2023-11-18T10:20:44;9.60;99.90
23289;DHT22;11813;50.834;4.280;2023-11-18T10:23:14;9.60;99.90
23289;DHT22;11813;50.834;4.280;2023-11-18T10:25:57;9.50;99.90
23289;DHT22;11813;50.834;4.280;2023-11-18T10:28:31;9.50;99.90
23289;DHT22;11813;50.834;4.280;2023-11-18T10:31:00;9.50;99.90
23289;DHT22;11813;50.834;4.280;2023-11-18T10:33:35;9.50;99.90
23289;DHT22;11813;50.834;4.280;2023-11-18T10:36:02;9.50;99.90
23289;DHT22;11813;50.834;4.280;2023-11-18T10:38:38;9.50;99.90
23289;DHT22;11813;50.834;4.280;2023-11-18T10:41:09;9.40;99.90
23289;DHT22;11813;50.834;4.280;2023-11-18T10:43:35;9.60;99.90
23289;DHT22;11813;50.834;4.280;2023-11-18T10:46:08;9.60;99.90
23289;DHT22;11813;50.834;4.280;2023-11-18T10:48:41;9.50;99.90
23289;DHT22;11813;50.834;4.280;2023-11-18T10:51:11;9.60;99.90
23289;DHT22;11813;50.834;4.280;2023-11-18T10:53:41;9.60;99.90
23289;DHT22;11813;50.834;4.280;2023-11-18T10:56:27;9.60;99.90
23289;DHT22;11813;50.834;4.280;2023-11-18T10:59:06;9.70;99.90
23289;DHT22;11813;50.834;4.280;2023-11-18T11:01:33;9.70;99.90
23289;DHT22;11813;50.834;4.280;2023-11-18T11:04:00;9.80;99.90
23289;DHT22;11813;50.834;4.280;2023-11-18T11:06:30;9.70;99.90
23289;DHT22;11813;50.834;4.280;2023-11-18T11:08:58;9.80;99.90
23289;DHT22;11813;50.834;4.280;2023-11-18T11:11:45;9.80;99.90
23289;DHT22;11813;50.834;4.280;2023-11-18T11:14:12;9.80;99.90
23289;DHT22;11813;50.834;4.280;2023-11-18T11:16:45;9.90;99.90
23289;DHT22;11813;50.834;4.280;2023-11-18T11:19:25;9.80;99.90
23289;DHT22;11813;50.834;4.280;2023-11-18T11:22:04;9.90;99.90
23289;DHT22;11813;50.834;4.280;2023-11-18T11:24:40;9.90;99.90
23289;DHT22;11813;50.834;4.280;2023-11-18T11:27:33;9.80;99.90
23289;DHT22;11813;50.834;4.280;2023-11-18T11:30:24;9.80;99.90
23289;DHT22;11813;50.834;4.280;2023-11-18T11:32:52;9.90;99.90
23289;DHT22;11813;50.834;4.280;2023-11-18T11:35:33;9.80;99.90
23289;DHT22;11813;50.834;4.280;2023-11-18T11:38:02;9.90;99.90
23289;DHT22;11813;50.834;4.280;2023-11-18T11:40:37;9.90;99.90
23289;DHT22;11813;50.834;4.280;2023-11-18T11:43:06;9.90;99.90
23289;DHT22;11813;50.834;4.280;2023-11-18T11:45:35;9.90;99.90
23289;DHT22;11813;50.834;4.280;2023-11-18T11:48:02;9.90;99.90
23289;DHT22;11813;50.834;4.280;2023-11-18T11:54:06;9.90;99.90
23289;DHT22;11813;50.834;4.280;2023-11-18T11:56:42;9.90;99.90
23289;DHT22;11813;50.834;4.280;2023-11-18T11:59:09;9.90;99.90
23289;DHT22;11813;50.834;4.280;2023-11-18T12:01:37;10.00;99.90
23289;DHT22;11813;50.834;4.280;2023-11-18T12:04:09;9.90;99.90
23289;DHT22;11813;50.834;4.280;2023-11-18T12:06:46;10.00;99.90
23289;DHT22;11813;50.834;4.280;2023-11-18T12:09:13;10.10;99.90
23289;DHT22;11813;50.834;4.280;2023-11-18T12:11:45;10.00;99.90
23289;DHT22;11813;50.834;4.280;2023-11-18T12:14:14;10.00;99.90
23289;DHT22;11813;50.834;4.280;2023-11-18T12:17:05;10.00;99.90
23289;DHT22;11813;50.834;4.280;2023-11-18T12:19:41;9.90;99.90
23289;DHT22;11813;50.834;4.280;2023-11-18T12:22:13;9.90;99.90
23289;DHT22;11813;50.834;4.280;2023-11-18T12:27:43;9.90;99.90
23289;DHT22;11813;50.834;4.280;2023-11-18T12:32:59;10.00;99.90
23289;DHT22;11813;50.834;4.280;2023-11-18T12:35:53;10.10;99.90
23289;DHT22;11813;50.834;4.280;2023-11-18T12:39:08;10.10;99.90
23289;DHT22;11813;50.834;4.280;2023-11-18T12:41:40;10.10;99.90
23289;DHT22;11813;50.834;4.280;2023-11-18T12:46:54;10.00;99.90
23289;DHT22;11813;50.834;4.280;2023-11-18T12:49:24;10.10;99.90
23289;DHT22;11813;50.834;4.280;2023-11-18T12:51:54;10.00;99.90
23289;DHT22;11813;50.834;4.280;2023-11-18T12:54:25;10.00;99.90
23289;DHT22;11813;50.834;4.280;2023-11-18T12:56:54;10.00;99.90
23289;DHT22;11813;50.834;4.280;2023-11-18T12:59:20;10.00;99.90
23289;DHT22;11813;50.834;4.280;2023-11-18T13:01:49;10.00;99.90
23289;DHT22;11813;50.834;4.280;2023-11-18T13:04:24;10.10;99.90
23289;DHT22;11813;50.834;4.280;2023-11-18T13:06:50;10.10;99.90
23289;DHT22;11813;50.834;4.280;2023-11-18T13:09:22;10.10;99.90
23289;DHT22;11813;50.834;4.280;2023-11-18T13:11:55;10.10;99.90
23289;DHT22;11813;50.834;4.280;2023-11-18T13:14:26;10.20;99.90
23289;DHT22;11813;50.834;4.280;2023-11-18T13:16:54;10.10;99.90
23289;DHT22;11813;50.834;4.280;2023-11-18T13:19:28;10.10;99.90
23289;DHT22;11813;50.834;4.280;2023-11-18T13:21:58;10.10;99.90
23289;DHT22;11813;50.834;4.280;2023-11-18T13:24:25;10.20;99.90
23289;DHT22;11813;50.834;4.280;2023-11-18T13:26:53;10.20;99.90
23289;DHT22;11813;50.834;4.280;2023-11-18T13:29:20;10.20;99.90
23289;DHT22;11813;50.834;4.280;2023-11-18T13:31:50;10.20;99.90
23289;DHT22;11813;50.834;4.280;2023-11-18T13:34:20;10.30;99.90
23289;DHT22;11813;50.834;4.280;2023-11-18T13:36:47;10.30;99.90
23289;DHT22;11813;50.834;4.280;2023-11-18T13:39:20;10.40;99.90
23289;DHT22;11813;50.834;4.280;2023-11-18T13:41:49;10.40;99.90
23289;DHT22;11813;50.834;4.280;2023-11-18T13:44:34;10.40;99.90
23289;DHT22;11813;50.834;4.280;2023-11-18T13:47:00;10.40;99.90
23289;DHT22;11813;50.834;4.280;2023-11-18T13:49:30;10.30;99.90
23289;DHT22;11813;50.834;4.280;2023-11-18T13:51:56;10.30;99.90
23289;DHT22;11813;50.834;4.280;2023-11-18T13:54:22;10.40;99.90
23289;DHT22;11813;50.834;4.280;2023-11-18T13:56:50;10.40;99.90
23289;DHT22;11813;50.834;4.280;2023-11-18T13:59:17;10.30;99.90
23289;DHT22;11813;50.834;4.280;2023-11-18T14:01:43;10.30;99.90
23289;DHT22;11813;50.834;4.280;2023-11-18T14:04:10;10.30;99.90
23289;DHT22;11813;50.834;4.280;2023-11-18T14:06:36;10.30;99.90
23289;DHT22;11813;50.834;4.280;2023-11-18T14:09:02;10.30;99.90
23289;DHT22;11813;50.834;4.280;2023-11-18T14:11:30;10.30;99.90
23289;DHT22;11813;50.834;4.280;2023-11-18T14:13:55;10.40;99.90
23289;DHT22;11813;50.834;4.280;2023-11-18T14:16:21;10.40;99.90
23289;DHT22;11813;50.834;4.280;2023-11-18T14:18:49;10.50;99.90
23289;DHT22;11813;50.834;4.280;2023-11-18T14:21:15;10.60;99.90
23289;DHT22;11813;50.834;4.280;2023-11-18T14:23:40;10.50;99.90
23289;DHT22;11813;50.834;4.280;2023-11-18T14:26:06;10.50;99.90
23289;DHT22;11813;50.834;4.280;2023-11-18T14:28:36;10.50;99.90
23289;DHT22;11813;50.834;4.280;2023-11-18T14:31:02;10.50;99.90
23289;DHT22;11813;50.834;4.280;2023-11-18T14:33:30;10.50;99.90
23289;DHT22;11813;50.834;4.280;2023-11-18T14:35:59;10.50;99.90
23289;DHT22;11813;50.834;4.280;2023-11-18T14:38:26;10.50;99.90
23289;DHT22;11813;50.834;4.280;2023-11-18T14:40:52;10.50;99.90
23289;DHT22;11813;50.834;4.280;2023-11-18T14:43:19;10.50;99.90
23289;DHT22;11813;50.834;4.280;2023-11-18T14:45:44;10.50;99.90
23289;DHT22;11813;50.834;4.280;2023-11-18T14:48:10;10.50;99.90
23289;DHT22;11813;50.834;4.280;2023-11-18T14:50:36;10.50;99.90
23289;DHT22;11813;50.834;4.280;2023-11-18T14:53:01;10.50;99.90
23289;DHT22;11813;50.834;4.280;2023-11-18T14:55:29;10.50;99.90
23289;DHT22;11813;50.834;4.280;2023-11-18T14:57:55;10.50;99.90
23289;DHT22;11813;50.834;4.280;2023-11-18T15:00:21;10.50;99.90
23289;DHT22;11813;50.834;4.280;2023-11-18T15:02:52;10.60;99.90
23289;DHT22;11813;50.834;4.280;2023-11-18T15:05:20;10.60;99.90
23289;DHT22;11813;50.834;4.280;2023-11-18T15:07:47;10.70;99.90
23289;DHT22;11813;50.834;4.280;2023-11-18T15:10:17;10.60;99.90
23289;DHT22;11813;50.834;4.280;2023-11-18T15:12:54;10.70;99.90
23289;DHT22;11813;50.834;4.280;2023-11-18T15:15:30;10.80;99.90
23289;DHT22;11813;50.834;4.280;2023-11-18T15:18:05;10.80;99.90
23289;DHT22;11813;50.834;4.280;2023-11-18T15:20:39;10.70;99.90
23289;DHT22;11813;50.834;4.280;2023-11-18T15:23:11;10.80;99.90
23289;DHT22;11813;50.834;4.280;2023-11-18T15:25:37;10.90;99.90
23289;DHT22;11813;50.834;4.280;2023-11-18T15:28:03;10.90;99.90
23289;DHT22;11813;50.834;4.280;2023-11-18T15:30:29;11.00;99.90
23289;DHT22;11813;50.834;4.280;2023-11-18T15:32:55;11.10;99.90
23289;DHT22;11813;50.834;4.280;2023-11-18T15:35:22;11.10;99.90
23289;DHT22;11813;50.834;4.280;2023-11-18T15:37:48;11.10;99.90
23289;DHT22;11813;50.834;4.280;2023-11-18T15:40:15;11.20;99.90
23289;DHT22;11813;50.834;4.280;2023-11-18T15:42:45;11.20;99.90
23289;DHT22;11813;50.834;4.280;2023-11-18T15:45:21;11.20;99.90
23289;DHT22;11813;50.834;4.280;2023-11-18T15:47:48;11.10;99.90
23289;DHT22;11813;50.834;4.280;2023-11-18T15:50:15;11.20;99.90
23289;DHT22;11813;50.834;4.280;2023-11-18T15:52:45;11.20;99.90
23289;DHT22;11813;50.834;4.280;2023-11-18T15:55:13;11.20;99.90
23289;DHT22;11813;50.834;4.280;2023-11-18T15:57:44;11.20;99.90
23289;DHT22;11813;50.834;4.280;2023-11-18T16:00:13;11.20;99.90
23289;DHT22;11813;50.834;4.280;2023-11-18T16:02:48;11.30;99.90
23289;DHT22;11813;50.834;4.280;2023-11-18T16:05:15;11.30;99.90
23289;DHT22;11813;50.834;4.280;2023-11-18T16:07:46;11.30;99.90